Cudworth, Canada
Current Conditions -  °F | °C
As of 3:00 PM on Friday 19 Dec 2014 (Local Time) from CYXE Reporting Station
Haze Haze  
Wind Chill: 16°   Ceiling: 300
Heat Index: 16°   Visibility: 2mi
Dew Point: 14°   Wind: 3mph
Humidity: 93%   Direction: 200°SSW
Pressure: 29.92"   Gusts: NA
Location:  52.48°N, 105.72°W
Report Text: CYXE 192100Z 20003KT 130V210 2SM BR OVC003 M09/M10 A2992 RMK FG4ST4 SLP168
Loading
Personal Weather Stations






























Interactive Weather Map New forecast layout! Learn more

10-Day Weather Forecast

Advertisements
Track Severe Weather on mobile